createdAt,value
2019-03-15T00:02:46.117Z,90.92
2019-03-15T00:05:52.651Z,91.42
2019-03-15T00:08:59.224Z,91.35
2019-03-15T00:12:05.617Z,91.44
2019-03-15T00:15:12.037Z,91.01
2019-03-15T00:18:18.406Z,91.75
2019-03-15T00:21:24.880Z,91.75
2019-03-15T00:24:31.285Z,93.17
2019-03-15T00:27:37.696Z,92.55
2019-03-15T00:30:43.976Z,92.05
2019-03-15T00:33:50.718Z,92.37
2019-03-15T00:36:57.574Z,92.19
2019-03-15T00:40:03.926Z,92.39
2019-03-15T00:43:11.072Z,92.04
2019-03-15T00:46:17.590Z,91.56
2019-03-15T00:49:23.968Z,90.92
2019-03-15T00:52:30.384Z,90.58
2019-03-15T00:55:36.724Z,90.63
2019-03-15T00:58:43.021Z,89.85
2019-03-15T01:01:49.445Z,89.72
2019-03-15T01:04:55.773Z,90.17
2019-03-15T01:08:02.438Z,90.30
2019-03-15T01:11:09.699Z,89.77
2019-03-15T01:14:17.617Z,89.61
2019-03-15T01:17:23.960Z,89.76
2019-03-15T01:20:30.479Z,90.05
2019-03-15T01:23:36.886Z,89.83
2019-03-15T01:26:43.394Z,89.73
2019-03-15T01:29:49.894Z,89.49
2019-03-15T01:32:56.277Z,89.86
2019-03-15T01:36:02.732Z,89.83
2019-03-15T01:39:10.162Z,90.19
2019-03-15T01:42:16.722Z,89.74
2019-03-15T01:45:23.469Z,89.58
2019-03-15T01:48:30.078Z,89.96
2019-03-15T01:51:36.461Z,89.58
2019-03-15T01:54:43.138Z,88.86
2019-03-15T01:57:50.003Z,88.54
2019-03-15T02:00:56.509Z,88.83
2019-03-15T02:04:02.997Z,88.23
2019-03-15T02:07:09.517Z,89.04
2019-03-15T02:10:15.924Z,89.00
2019-03-15T02:13:22.438Z,89.29
2019-03-15T02:16:29.209Z,89.25
2019-03-15T02:19:35.634Z,89.09
2019-03-15T02:22:42.032Z,89.03
2019-03-15T02:25:48.641Z,89.44
2019-03-15T02:28:54.987Z,89.33
2019-03-15T02:32:01.508Z,88.89
2019-03-15T02:35:08.033Z,88.49
2019-03-15T02:38:17.433Z,88.43
2019-03-15T02:41:23.847Z,87.36
2019-03-15T02:44:32.401Z,87.62
2019-03-15T02:47:41.764Z,87.58
2019-03-15T02:50:48.339Z,88.04
2019-03-15T02:53:54.807Z,88.04
2019-03-15T02:57:01.383Z,88.59
2019-03-15T03:00:08.016Z,88.83
2019-03-15T03:03:14.634Z,88.57
2019-03-15T03:06:20.969Z,88.84
2019-03-15T03:09:27.555Z,88.40
2019-03-15T03:12:34.016Z,88.78
2019-03-15T03:15:40.386Z,89.19
2019-03-15T03:18:46.893Z,89.38
2019-03-15T03:21:53.256Z,89.02
2019-03-15T03:24:59.658Z,88.74
2019-03-15T03:28:06.034Z,89.20
2019-03-15T03:31:15.070Z,89.39
2019-03-15T03:34:20.829Z,89.49
2019-03-15T03:37:27.297Z,89.20
2019-03-15T03:40:33.662Z,89.29
2019-03-15T03:43:40.025Z,89.20
2019-03-15T03:46:46.286Z,89.30
2019-03-15T03:49:53.569Z,88.25
2019-03-15T03:53:00.101Z,88.25
2019-03-15T03:56:06.477Z,88.35
2019-03-15T03:59:12.812Z,88.38
2019-03-15T04:02:19.228Z,88.68
2019-03-15T04:05:25.865Z,88.25
2019-03-15T04:08:32.281Z,88.98
2019-03-15T04:11:38.613Z,88.82
2019-03-15T04:14:45.055Z,88.69
2019-03-15T04:17:51.404Z,88.22
2019-03-15T04:20:57.573Z,88.48
2019-03-15T04:24:03.961Z,88.23
2019-03-15T04:27:10.640Z,88.19
2019-03-15T04:30:17.096Z,88.14
2019-03-15T04:33:23.514Z,88.95
2019-03-15T04:36:30.110Z,88.63
2019-03-15T04:39:36.440Z,88.48
2019-03-15T04:42:42.767Z,88.03
2019-03-15T04:45:50.067Z,87.74
2019-03-15T04:48:56.487Z,88.32
2019-03-15T04:52:03.438Z,87.92
2019-03-15T04:55:10.107Z,88.20
2019-03-15T04:58:16.784Z,88.09
2019-03-15T05:01:23.112Z,88.67
2019-03-15T05:04:29.600Z,88.67
2019-03-15T05:07:35.925Z,88.19
2019-03-15T05:10:43.452Z,88.06
2019-03-15T05:13:49.777Z,87.88
2019-03-15T05:16:56.191Z,87.97
2019-03-15T05:20:02.549Z,87.62
2019-03-15T05:23:08.965Z,87.22
2019-03-15T05:26:15.258Z,86.90
2019-03-15T05:29:22.818Z,87.27
2019-03-15T05:32:31.051Z,88.07
2019-03-15T05:35:38.819Z,87.86
2019-03-15T05:38:45.180Z,87.83
2019-03-15T05:41:54.652Z,88.32
2019-03-15T05:45:01.264Z,87.95
2019-03-15T05:48:10.352Z,88.49
2019-03-15T05:51:16.743Z,88.48
2019-03-15T05:54:23.474Z,88.56
2019-03-15T05:57:30.518Z,88.07
2019-03-15T06:00:37.482Z,88.18
2019-03-15T06:03:48.929Z,87.85
2019-03-15T06:06:52.090Z,88.32
2019-03-15T06:09:58.566Z,88.49
2019-03-15T06:13:05.059Z,88.56
2019-03-15T06:16:11.588Z,88.60
2019-03-15T06:19:17.940Z,88.73
2019-03-15T06:22:24.412Z,88.88
2019-03-15T06:25:30.909Z,88.98
2019-03-15T06:28:37.250Z,88.75
2019-03-15T06:31:43.673Z,88.87
2019-03-15T06:34:50.376Z,88.88
2019-03-15T06:37:58.563Z,88.84
2019-03-15T06:41:06.465Z,89.21
2019-03-15T06:44:12.854Z,88.91
2019-03-15T06:47:20.191Z,88.97
2019-03-15T06:50:26.681Z,88.94
2019-03-15T06:53:33.097Z,89.75
2019-03-15T06:56:40.411Z,89.67
2019-03-15T06:59:47.292Z,89.19
2019-03-15T07:02:53.964Z,89.92
2019-03-15T07:06:01.296Z,90.34
2019-03-15T07:09:07.890Z,90.79
2019-03-15T07:12:14.290Z,90.66
2019-03-15T07:15:30.872Z,91.16
2019-03-15T07:18:37.336Z,91.14
2019-03-15T07:21:46.746Z,90.95
2019-03-15T07:24:51.992Z,91.16
2019-03-15T07:27:58.322Z,91.22
2019-03-15T07:31:07.182Z,91.07
2019-03-15T07:34:14.048Z,90.90
2019-03-15T07:37:21.479Z,90.49
2019-03-15T07:40:27.971Z,90.27
2019-03-15T07:43:34.232Z,90.69
2019-03-15T07:46:40.616Z,90.54
2019-03-15T07:49:47.097Z,90.90
2019-03-15T07:52:54.636Z,90.73
2019-03-15T07:56:02.148Z,90.43
2019-03-15T07:59:11.960Z,90.21
2019-03-15T08:02:20.148Z,90.32
2019-03-15T08:05:26.587Z,90.13
2019-03-15T08:08:36.224Z,90.28
2019-03-15T08:11:42.816Z,89.92
2019-03-15T08:14:50.829Z,90.08
2019-03-15T08:17:59.271Z,90.18
2019-03-15T08:21:05.740Z,90.16
2019-03-15T08:24:12.001Z,90.39
2019-03-15T08:27:18.447Z,90.31
2019-03-15T08:30:25.413Z,90.34
2019-03-15T08:33:31.736Z,90.36
2019-03-15T08:36:38.003Z,90.18
2019-03-15T08:39:44.605Z,90.12
2019-03-15T08:42:51.235Z,90.40
2019-03-15T08:45:57.594Z,90.49
2019-03-15T08:49:04.134Z,90.29
2019-03-15T08:52:10.593Z,90.56
2019-03-15T08:55:20.514Z,90.70
2019-03-15T08:58:26.864Z,90.60
2019-03-15T09:01:33.350Z,90.55
2019-03-15T09:04:39.891Z,90.85
2019-03-15T09:07:46.752Z,90.50
2019-03-15T09:10:53.125Z,90.60
2019-03-15T09:13:59.397Z,90.90
2019-03-15T09:17:05.881Z,90.83
2019-03-15T09:20:12.386Z,90.53
2019-03-15T09:23:18.638Z,90.41
2019-03-15T09:26:25.200Z,90.09
2019-03-15T09:29:31.778Z,89.96
2019-03-15T09:32:38.167Z,89.81
2019-03-15T09:35:44.454Z,89.31
2019-03-15T09:38:50.854Z,89.60
2019-03-15T09:41:57.468Z,89.24
2019-03-15T09:45:04.175Z,88.96
2019-03-15T09:48:10.571Z,88.57
2019-03-15T09:51:20.414Z,88.33
2019-03-15T09:54:27.265Z,88.41
2019-03-15T09:57:33.708Z,88.70
2019-03-15T10:00:40.067Z,88.71
2019-03-15T10:03:46.705Z,88.91
2019-03-15T10:06:53.292Z,88.96
2019-03-15T10:10:12.933Z,88.42
2019-03-15T10:13:08.934Z,88.81
2019-03-15T10:16:15.401Z,88.42
2019-03-15T10:19:21.853Z,88.41
2019-03-15T10:22:28.193Z,88.63
2019-03-15T10:25:46.128Z,88.81
2019-03-15T10:28:42.683Z,88.44
2019-03-15T10:31:49.085Z,88.59
2019-03-15T10:34:55.420Z,88.19
2019-03-15T10:38:01.820Z,88.55
2019-03-15T10:41:08.331Z,88.41
2019-03-15T10:44:15.056Z,88.37
2019-03-15T10:47:21.505Z,88.38
2019-03-15T10:50:27.914Z,88.56
2019-03-15T10:53:34.397Z,88.33
2019-03-15T10:56:40.711Z,88.25
2019-03-15T10:59:47.169Z,88.35
2019-03-15T11:02:53.493Z,88.35
2019-03-15T11:06:00.161Z,88.49
2019-03-15T11:09:07.391Z,87.88
2019-03-15T11:12:13.791Z,87.73
2019-03-15T11:15:20.278Z,87.73
2019-03-15T11:18:26.691Z,87.83
2019-03-15T11:21:33.114Z,87.57
2019-03-15T11:24:39.633Z,87.74
2019-03-15T11:27:46.027Z,87.63
2019-03-15T11:30:52.631Z,87.22
2019-03-15T11:33:59.056Z,87.26
2019-03-15T11:37:05.498Z,87.35
2019-03-15T11:40:14.089Z,87.60
2019-03-15T11:43:20.018Z,87.32
2019-03-15T11:46:26.519Z,87.30
2019-03-15T11:49:32.896Z,87.49
2019-03-15T11:52:39.332Z,86.98
2019-03-15T11:55:45.840Z,87.35
2019-03-15T11:58:52.279Z,87.84
2019-03-15T12:02:04.506Z,87.35
2019-03-15T12:05:11.015Z,87.06
2019-03-15T12:08:19.057Z,87.42
2019-03-15T12:11:26.816Z,87.51
2019-03-15T12:14:40.822Z,87.26
2019-03-15T12:17:42.050Z,87.95
2019-03-15T12:20:49.403Z,87.81
2019-03-15T12:23:55.922Z,86.78
2019-03-15T12:27:04.726Z,87.31
2019-03-15T12:30:14.143Z,86.84
2019-03-15T12:33:20.393Z,87.16
2019-03-15T12:36:32.170Z,86.86
2019-03-15T12:39:41.502Z,87.45
2019-03-15T12:42:47.983Z,87.43
2019-03-15T12:45:54.438Z,87.51
2019-03-15T12:49:01.429Z,87.54
2019-03-15T12:52:07.929Z,87.51
2019-03-15T12:55:14.521Z,87.67
2019-03-15T12:58:20.917Z,87.37
2019-03-15T13:01:27.435Z,86.64
2019-03-15T13:04:33.884Z,86.76
2019-03-15T13:07:40.308Z,86.80
2019-03-15T13:10:47.108Z,87.14
2019-03-15T13:13:53.692Z,87.41
2019-03-15T13:17:00.065Z,87.35
2019-03-15T13:20:07.257Z,87.83
2019-03-15T13:23:16.603Z,87.52
2019-03-15T13:26:23.053Z,87.84
2019-03-15T13:29:30.613Z,87.79
2019-03-15T13:32:37.958Z,87.67
2019-03-15T13:35:44.352Z,87.85
2019-03-15T13:38:50.807Z,87.42
2019-03-15T13:41:57.367Z,88.06
2019-03-15T13:45:04.241Z,87.49
2019-03-15T13:48:11.789Z,87.87
2019-03-15T13:51:22.583Z,87.01
2019-03-15T13:54:33.451Z,86.85
2019-03-15T13:57:39.809Z,87.05
2019-03-15T14:00:48.479Z,86.73
2019-03-15T14:03:58.519Z,87.20
2019-03-15T14:07:04.798Z,87.19
2019-03-15T14:10:11.541Z,87.16
2019-03-15T14:13:18.483Z,87.24
2019-03-15T14:16:27.161Z,86.79
2019-03-15T14:19:41.578Z,86.85
2019-03-15T14:22:50.398Z,87.01
2019-03-15T14:25:56.711Z,86.85
2019-03-15T14:29:06.403Z,86.76
2019-03-15T14:32:17.246Z,87.04
2019-03-15T14:35:23.774Z,86.63
2019-03-15T14:38:30.493Z,86.63
2019-03-15T14:41:42.581Z,86.76
2019-03-15T14:44:49.265Z,87.24
2019-03-15T14:47:57.342Z,87.68
2019-03-15T14:51:05.589Z,87.63
2019-03-15T14:54:14.697Z,87.42
2019-03-15T14:57:21.361Z,87.45
2019-03-15T15:00:27.765Z,87.63
2019-03-15T15:03:34.260Z,88.05
2019-03-15T15:06:42.439Z,88.34
2019-03-15T15:09:50.439Z,87.66
2019-03-15T15:12:56.910Z,87.81
2019-03-15T15:16:04.550Z,88.27
2019-03-15T15:19:12.630Z,87.96
2019-03-15T15:22:27.907Z,87.95
2019-03-15T15:25:32.931Z,87.75
2019-03-15T15:28:39.450Z,87.36
2019-03-15T15:31:51.587Z,87.36
2019-03-15T15:34:59.630Z,87.08
2019-03-15T15:38:09.037Z,87.18
2019-03-15T15:41:21.285Z,87.20
2019-03-15T15:44:30.019Z,87.25
2019-03-15T15:47:36.443Z,87.48
2019-03-15T15:50:45.573Z,87.22
2019-03-15T15:53:51.925Z,87.47
2019-03-15T15:56:59.274Z,87.72
2019-03-15T16:00:07.742Z,87.73
2019-03-15T16:03:16.152Z,87.42
2019-03-15T16:06:22.853Z,87.67
2019-03-15T16:09:39.310Z,87.39
2019-03-15T16:12:44.946Z,87.43
2019-03-15T16:15:51.490Z,87.48
2019-03-15T16:18:59.581Z,87.74
2019-03-15T16:22:10.437Z,87.84
2019-03-15T16:25:17.703Z,88.18
2019-03-15T16:28:31.323Z,87.98
2019-03-15T16:31:33.990Z,88.20
2019-03-15T16:34:41.342Z,87.90
2019-03-15T16:37:48.595Z,88.21
2019-03-15T16:40:55.501Z,88.21
2019-03-15T16:44:03.840Z,88.20
2019-03-15T16:47:10.328Z,88.53
2019-03-15T16:50:16.844Z,88.41
2019-03-15T16:53:23.357Z,88.36
2019-03-15T16:56:31.172Z,88.10
2019-03-15T16:59:37.725Z,88.78
2019-03-15T17:02:44.408Z,88.40
2019-03-15T17:05:50.705Z,88.34
2019-03-15T17:08:58.206Z,88.17
2019-03-15T17:12:06.175Z,88.17
2019-03-15T17:15:13.335Z,88.78
2019-03-15T17:18:21.994Z,88.81
2019-03-15T17:21:28.617Z,88.96
2019-03-15T17:24:35.212Z,88.70
2019-03-15T17:27:44.814Z,88.40
2019-03-15T17:30:54.410Z,88.22
2019-03-15T17:34:00.832Z,88.47
2019-03-15T17:37:09.697Z,88.22
2019-03-15T17:40:18.781Z,88.25
2019-03-15T17:43:28.069Z,88.10
2019-03-15T17:46:37.205Z,87.86
2019-03-15T17:49:46.140Z,87.90
2019-03-15T17:52:51.906Z,88.23
2019-03-15T17:56:02.110Z,88.19
2019-03-15T17:59:12.634Z,88.32
2019-03-15T18:02:19.696Z,88.07
2019-03-15T18:05:26.131Z,87.94
2019-03-15T18:08:36.100Z,87.96
2019-03-15T18:11:44.777Z,87.99
2019-03-15T18:14:51.216Z,87.76
2019-03-15T18:18:00.000Z,88.12
2019-03-15T18:21:05.657Z,87.83
2019-03-15T18:24:16.524Z,88.30
2019-03-15T18:27:23.961Z,88.24
2019-03-15T18:30:38.286Z,88.17
2019-03-15T18:33:46.466Z,88.49
2019-03-15T18:36:58.975Z,88.09
2019-03-15T18:40:11.313Z,87.87
2019-03-15T18:43:21.078Z,88.23
2019-03-15T18:46:27.451Z,89.16
2019-03-15T18:49:35.620Z,89.17
2019-03-15T18:52:43.721Z,89.09
2019-03-15T18:55:55.447Z,88.55
2019-03-15T18:59:02.264Z,88.68
2019-03-15T19:02:11.401Z,88.67
2019-03-15T19:05:20.674Z,88.25
2019-03-15T19:08:28.937Z,88.23
2019-03-15T19:11:35.383Z,88.12
2019-03-15T19:14:46.049Z,88.00
2019-03-15T19:17:52.543Z,88.14
2019-03-15T19:21:01.995Z,87.69
2019-03-15T19:24:08.519Z,87.93
2019-03-15T19:27:17.906Z,88.54
2019-03-15T19:30:27.911Z,88.63
2019-03-15T19:33:36.734Z,89.41
2019-03-15T19:36:46.881Z,89.13
2019-03-15T19:39:53.368Z,88.67
2019-03-15T19:43:02.020Z,88.56
2019-03-15T19:46:09.593Z,88.27
2019-03-15T19:49:16.215Z,87.92
2019-03-15T19:52:22.847Z,88.07
2019-03-15T19:55:29.366Z,87.91
2019-03-15T19:58:35.793Z,88.10
2019-03-15T20:01:42.202Z,87.97
2019-03-15T20:04:54.487Z,88.27
2019-03-15T20:08:00.932Z,88.32
2019-03-15T20:11:10.637Z,88.19
2019-03-15T20:14:19.491Z,87.49
2019-03-15T20:17:34.031Z,88.18
2019-03-15T20:20:41.796Z,88.12
2019-03-15T20:23:50.459Z,87.91
2019-03-15T20:26:59.280Z,87.95
2019-03-15T20:30:20.217Z,87.86
2019-03-15T20:33:15.394Z,87.89
2019-03-15T20:36:24.632Z,87.74
2019-03-15T20:39:31.744Z,87.80
2019-03-15T20:42:38.256Z,87.73
2019-03-15T20:45:47.626Z,87.70
2019-03-15T20:48:54.074Z,87.29
2019-03-15T20:52:00.421Z,86.40
2019-03-15T20:55:07.025Z,85.94
2019-03-15T20:58:21.031Z,86.48
2019-03-15T21:01:28.112Z,86.41
2019-03-15T21:04:34.582Z,86.20
2019-03-15T21:07:44.177Z,86.45
2019-03-15T21:10:51.639Z,87.03
2019-03-15T21:13:58.290Z,86.91
2019-03-15T21:17:06.619Z,87.06
2019-03-15T21:20:18.196Z,87.15
2019-03-15T21:23:27.151Z,87.35
2019-03-15T21:26:35.403Z,87.70
2019-03-15T21:29:48.086Z,87.63
2019-03-15T21:32:56.390Z,87.70
2019-03-15T21:36:03.232Z,87.38
2019-03-15T21:39:10.221Z,87.24
2019-03-15T21:42:19.714Z,87.06
2019-03-15T21:45:32.318Z,86.99
2019-03-15T21:48:40.123Z,86.79
2019-03-15T21:51:56.739Z,86.83
2019-03-15T21:55:07.615Z,86.75
2019-03-15T21:58:16.160Z,86.43
2019-03-15T22:01:24.755Z,86.45
2019-03-15T22:04:38.325Z,86.33
2019-03-15T22:07:44.711Z,86.60
2019-03-15T22:10:54.850Z,86.49
2019-03-15T22:14:04.351Z,87.07
2019-03-15T22:17:10.781Z,88.06
2019-03-15T22:20:19.841Z,88.25
2019-03-15T22:23:26.118Z,88.16
2019-03-15T22:26:34.164Z,88.12
2019-03-15T22:29:52.959Z,88.68
2019-03-15T22:32:52.463Z,88.68
2019-03-15T22:36:03.913Z,88.58
2019-03-15T22:39:12.028Z,88.28
2019-03-15T22:42:18.545Z,87.88
2019-03-15T22:45:27.990Z,87.88
2019-03-15T22:48:39.241Z,88.42
2019-03-15T22:51:54.202Z,88.57
2019-03-15T22:55:05.578Z,88.08
2019-03-15T22:58:13.956Z,88.13
2019-03-15T23:01:30.149Z,88.78
2019-03-15T23:04:34.354Z,88.72
2019-03-15T23:07:42.226Z,88.93
2019-03-15T23:10:51.536Z,88.90
2019-03-15T23:13:59.065Z,89.14
2019-03-15T23:17:05.986Z,89.38
2019-03-15T23:20:12.571Z,89.39
2019-03-15T23:23:24.417Z,89.01
2019-03-15T23:26:31.161Z,88.46
2019-03-15T23:29:40.596Z,88.23
2019-03-15T23:32:50.523Z,87.79
2019-03-15T23:35:57.503Z,87.50
2019-03-15T23:39:05.337Z,86.91
2019-03-15T23:42:12.528Z,86.74
2019-03-15T23:45:20.816Z,86.97
2019-03-15T23:48:29.843Z,87.34
2019-03-15T23:51:36.258Z,87.22
2019-03-15T23:54:42.821Z,86.91
2019-03-15T23:57:50.905Z,88.33
